Norse Mersey — IBEN — position and weather

sailwx.info

Track history (hours):
 
Tides and Currents Weather Stations Pressure Air Temp Water Temp Dewpoint Dewpoint Depression Visibility Wind Speed Wind Dir Waves Ship Positions

Norse Mersey

Operator: Norse Merchant Ferries

Last reported at 2016-Dec-07 08:33 UTC. Time now 2016-Dec-07 22:23 UTC.
Position N 43°25' E 007°16'.

Length 175 m; draft 5.9 m.

Type: Passenger vessel. MMSI: 247026000.

Date/timePositionNaut miles runAvg speedWind from/ knotsBaromVisibWave heightAir tempDewpointWater temp
2016-Dec-07 08:33N 43°25' E 007°16'2016.6
2016-Dec-07 07:21N 43°36' E 007°39'3416.3
2016-Dec-07 05:14N 43°58' E 008°16'1116.2
2016-Dec-07 04:33N 44°07' E 008°25'1212.4
2016-Dec-07 03:34N 44°19' E 008°30'0 0.1
2016-Dec-07 02:33N 44°19' E 008°30'0 0.0
2016-Dec-07 01:33N 44°19' E 008°30'0 0.0
2016-Dec-07 00:33N 44°19' E 008°30'0 0.0
2016-Dec-06 23:33N 44°19' E 008°30'0 0.0
2016-Dec-06 22:33N 44°19' E 008°30'0 0.0
2016-Dec-06 21:33N 44°19' E 008°30'5 5.2
2016-Dec-06 20:33N 44°14' E 008°31'5114.8
2016-Dec-06 17:05N 43°38' E 007°41'914.3
2016-Dec-06 16:25N 43°32' E 007°30'1314.5
2016-Dec-06 15:34N 43°24' E 007°17'52 1.1
2016-Dec-04 17:06N 43°52' E 008°18'916.1
2016-Dec-04 16:33N 44°00' E 008°23'1616.0
2016-Dec-04 15:33N 44°15' E 008°31'4 4.0
2016-Dec-04 14:33N 44°19' E 008°30'0 0.0
2016-Dec-04 13:33N 44°19' E 008°30'0 0.0
2016-Dec-04 12:33N 44°19' E 008°30'0 0.0
2016-Dec-04 11:33N 44°19' E 008°30'0 0.0
2016-Dec-04 10:33N 44°19' E 008°30'0 0.0
2016-Dec-04 09:33N 44°19' E 008°30'2 2.0
2016-Dec-04 08:33N 44°17' E 008°31'7013.9
2016-Dec-04 03:31N 43°27' E 007°22'262 9.6
2016-Dec-03 00:09N 41°22' E 002°11'4 7.4
2016-Dec-02 23:33N 41°17' E 002°11'7414.6
2016-Dec-02 18:30N 41°51' E 003°39'1515.6
2016-Dec-02 17:33N 41°58' E 003°56'17115.5
2016-Dec-02 06:33N 43°25' E 007°17'6416.1
2016-Dec-02 02:33N 44°06' E 008°24'1313.0
2016-Dec-02 01:34N 44°19' E 008°30'0 0.1
2016-Dec-02 00:28N 44°19' E 008°30'0 0.0
2016-Dec-01 23:28N 44°19' E 008°30'0 0.0
2016-Dec-01 22:16N 44°19' E 008°30'0 0.0
2016-Dec-01 21:28N 44°19' E 008°30'0 0.0
2016-Dec-01 20:33N 44°19' E 008°30'4 4.0
2016-Dec-01 19:33N 44°15' E 008°33'1 0.7
2016-Dec-01 18:33N 44°16' E 008°32'8 8.4
2016-Dec-01 17:33N 44°09' E 008°27'6115.0
2016-Dec-01 13:28N 43°28' E 007°23'  
2016-Nov-28 16:33N 43°21' E 007°11'6916.8
2016-Nov-28 12:26N 44°06' E 008°24'1315.3
2016-Nov-28 11:33N 44°18' E 008°31'1 1.0
2016-Nov-28 10:32N 44°19' E 008°30'0 0.0
2016-Nov-28 09:32N 44°19' E 008°30'0 0.0
2016-Nov-28 08:32N 44°19' E 008°30'0 0.0
2016-Nov-28 07:32N 44°19' E 008°30'0 0.0
2016-Nov-28 06:32N 44°19' E 008°30'0 0.0
2016-Nov-28 05:32N 44°19' E 008°30'0 0.0
2016-Nov-28 04:32N 44°19' E 008°30'1 0.8
2016-Nov-28 03:33N 44°19' E 008°31'1212.4
2016-Nov-28 02:33N 44°07' E 008°25'  
Track history (hours):
 
Tides and Currents Weather Stations Pressure Air Temp Water Temp Dewpoint Dewpoint Depression Visibility Wind Speed Wind Dir Waves Ship Positions

Norse Mersey

Operator: Norse Merchant Ferries

Last reported at 2016-Dec-07 08:33 UTC. Time now 2016-Dec-07 22:23 UTC.
Position N 43°25' E 007°16'.

Length 175 m; draft 5.9 m.

Type: Passenger vessel. MMSI: 247026000.

Date/timePositionNaut miles runAvg speedWind from/ knotsBaromVisibWave heightAir tempDewpointWater temp
2016-Dec-07 08:33N 43°25' E 007°16'2016.6
2016-Dec-07 07:21N 43°36' E 007°39'3416.3
2016-Dec-07 05:14N 43°58' E 008°16'1116.2
2016-Dec-07 04:33N 44°07' E 008°25'1212.4
2016-Dec-07 03:34N 44°19' E 008°30'0 0.1
2016-Dec-07 02:33N 44°19' E 008°30'0 0.0
2016-Dec-07 01:33N 44°19' E 008°30'0 0.0
2016-Dec-07 00:33N 44°19' E 008°30'0 0.0
2016-Dec-06 23:33N 44°19' E 008°30'0 0.0
2016-Dec-06 22:33N 44°19' E 008°30'0 0.0
2016-Dec-06 21:33N 44°19' E 008°30'5 5.2
2016-Dec-06 20:33N 44°14' E 008°31'5114.8
2016-Dec-06 17:05N 43°38' E 007°41'914.3
2016-Dec-06 16:25N 43°32' E 007°30'1314.5
2016-Dec-06 15:34N 43°24' E 007°17'52 1.1
2016-Dec-04 17:06N 43°52' E 008°18'916.1
2016-Dec-04 16:33N 44°00' E 008°23'1616.0
2016-Dec-04 15:33N 44°15' E 008°31'4 4.0
2016-Dec-04 14:33N 44°19' E 008°30'0 0.0
2016-Dec-04 13:33N 44°19' E 008°30'0 0.0
2016-Dec-04 12:33N 44°19' E 008°30'0 0.0
2016-Dec-04 11:33N 44°19' E 008°30'0 0.0
2016-Dec-04 10:33N 44°19' E 008°30'0 0.0
2016-Dec-04 09:33N 44°19' E 008°30'2 2.0
2016-Dec-04 08:33N 44°17' E 008°31'7013.9
2016-Dec-04 03:31N 43°27' E 007°22'262 9.6
2016-Dec-03 00:09N 41°22' E 002°11'4 7.4
2016-Dec-02 23:33N 41°17' E 002°11'7414.6
2016-Dec-02 18:30N 41°51' E 003°39'1515.6
2016-Dec-02 17:33N 41°58' E 003°56'17115.5
2016-Dec-02 06:33N 43°25' E 007°17'6416.1
2016-Dec-02 02:33N 44°06' E 008°24'1313.0
2016-Dec-02 01:34N 44°19' E 008°30'0 0.1
2016-Dec-02 00:28N 44°19' E 008°30'0 0.0
2016-Dec-01 23:28N 44°19' E 008°30'0 0.0
2016-Dec-01 22:16N 44°19' E 008°30'0 0.0
2016-Dec-01 21:28N 44°19' E 008°30'0 0.0
2016-Dec-01 20:33N 44°19' E 008°30'4 4.0
2016-Dec-01 19:33N 44°15' E 008°33'1 0.7
2016-Dec-01 18:33N 44°16' E 008°32'8 8.4
2016-Dec-01 17:33N 44°09' E 008°27'6115.0
2016-Dec-01 13:28N 43°28' E 007°23'  
2016-Nov-28 16:33N 43°21' E 007°11'6916.8
2016-Nov-28 12:26N 44°06' E 008°24'1315.3
2016-Nov-28 11:33N 44°18' E 008°31'1 1.0
2016-Nov-28 10:32N 44°19' E 008°30'0 0.0
2016-Nov-28 09:32N 44°19' E 008°30'0 0.0
2016-Nov-28 08:32N 44°19' E 008°30'0 0.0
2016-Nov-28 07:32N 44°19' E 008°30'0 0.0
2016-Nov-28 06:32N 44°19' E 008°30'0 0.0
2016-Nov-28 05:32N 44°19' E 008°30'0 0.0
2016-Nov-28 04:32N 44°19' E 008°30'1 0.8
2016-Nov-28 03:33N 44°19' E 008°31'1212.4
2016-Nov-28 02:33N 44°07' E 008°25'  

Dump ship's entire track history